createdAt,value
2023-03-18T00:01:41.927Z,11.90
2023-03-18T00:04:11.287Z,11.93
2023-03-18T00:06:40.906Z,10.07
2023-03-18T00:09:09.004Z,10.70
2023-03-18T00:11:37.660Z,11.97
2023-03-18T00:14:05.813Z,9.77
2023-03-18T00:16:35.148Z,10.00
2023-03-18T00:19:04.258Z,11.50
2023-03-18T00:21:32.954Z,10.60
2023-03-18T00:24:04.973Z,12.87
2023-03-18T00:26:33.205Z,10.40
2023-03-18T00:29:01.450Z,12.33
2023-03-18T00:31:30.054Z,10.13
2023-03-18T00:33:59.183Z,11.97
2023-03-18T00:36:27.247Z,9.23
2023-03-18T00:38:57.941Z,10.80
2023-03-18T00:41:28.854Z,10.00
2023-03-18T00:43:58.179Z,10.23
2023-03-18T00:46:29.216Z,11.33
2023-03-18T00:49:00.026Z,10.43
2023-03-18T00:51:30.145Z,10.60
2023-03-18T00:54:00.425Z,13.83
2023-03-18T00:56:31.985Z,10.80
2023-03-18T00:59:00.730Z,9.53
2023-03-18T01:01:29.322Z,11.87
2023-03-18T01:04:00.855Z,10.93
2023-03-18T01:06:32.472Z,9.50
2023-03-18T01:09:01.411Z,11.10
2023-03-18T01:11:31.208Z,10.07
2023-03-18T01:14:00.605Z,11.70
2023-03-18T01:16:29.775Z,12.10
2023-03-18T01:18:58.339Z,13.80
2023-03-18T01:21:26.800Z,14.30
2023-03-18T01:24:00.484Z,17.17
2023-03-18T01:26:31.034Z,12.77
2023-03-18T01:29:01.133Z,9.20
2023-03-18T01:31:31.307Z,9.20
2023-03-18T01:34:05.680Z,9.10
2023-03-18T01:36:44.237Z,9.37
2023-03-18T01:39:12.271Z,10.53
2023-03-18T01:41:42.309Z,9.87
2023-03-18T01:44:14.971Z,9.80
2023-03-18T01:46:46.418Z,9.33
2023-03-18T01:49:19.020Z,9.93
2023-03-18T01:51:51.133Z,10.90
2023-03-18T01:54:20.733Z,9.47
2023-03-18T01:56:51.755Z,8.27
2023-03-18T01:59:21.524Z,8.13
2023-03-18T02:01:54.002Z,7.47
2023-03-18T02:04:27.242Z,9.13
2023-03-18T02:06:55.480Z,10.00
2023-03-18T02:09:23.599Z,10.03
2023-03-18T02:14:25.631Z,8.30
2023-03-18T02:16:58.554Z,9.67
2023-03-18T02:19:47.666Z,8.20
2023-03-18T02:22:25.696Z,10.83
2023-03-18T02:25:14.232Z,10.57
2023-03-18T02:27:46.931Z,11.80
2023-03-18T02:30:19.613Z,8.93
2023-03-18T02:32:52.906Z,9.50
2023-03-18T02:35:21.335Z,9.27
2023-03-18T02:37:51.046Z,9.57
2023-03-18T02:40:22.133Z,8.50
2023-03-18T02:42:52.605Z,9.80
2023-03-18T02:45:34.809Z,9.10
2023-03-18T02:48:16.158Z,9.10
2023-03-18T02:50:44.183Z,9.17
2023-03-18T02:53:14.014Z,10.03
2023-03-18T02:55:43.396Z,8.63
2023-03-18T02:58:13.011Z,8.03
2023-03-18T03:00:42.134Z,8.50
2023-03-18T03:03:10.835Z,9.63
2023-03-18T03:05:39.218Z,8.17
2023-03-18T03:08:07.750Z,8.47
2023-03-18T03:10:40.355Z,12.43
2023-03-18T03:13:09.801Z,8.60
2023-03-18T03:15:40.395Z,7.80
2023-03-18T03:18:08.935Z,7.83
2023-03-18T03:20:39.254Z,8.10
2023-03-18T03:23:08.453Z,9.30
2023-03-18T03:25:36.859Z,7.70
2023-03-18T03:28:06.179Z,8.20
2023-03-18T03:30:34.986Z,7.63
2023-03-18T03:33:04.679Z,7.83
2023-03-18T03:35:33.604Z,10.80
2023-03-18T03:38:02.001Z,6.97
2023-03-18T03:40:31.780Z,7.50
2023-03-18T03:43:00.049Z,6.80
2023-03-18T03:45:28.479Z,7.00
2023-03-18T03:47:57.141Z,6.73
2023-03-18T03:50:27.150Z,6.90
2023-03-18T03:52:55.417Z,6.87
2023-03-18T03:55:24.061Z,6.50
2023-03-18T03:57:54.024Z,7.03
2023-03-18T04:00:24.204Z,6.00
2023-03-18T04:02:54.295Z,7.53
2023-03-18T04:05:26.344Z,6.13
2023-03-18T04:07:55.491Z,6.37
2023-03-18T04:10:36.549Z,6.77
2023-03-18T04:13:07.277Z,5.80
2023-03-18T04:15:35.595Z,6.70
2023-03-18T04:18:10.864Z,6.90
2023-03-18T04:20:41.003Z,7.13
2023-03-18T04:23:18.701Z,6.00
2023-03-18T04:25:47.270Z,6.07
2023-03-18T04:28:16.747Z,7.17
2023-03-18T04:30:45.010Z,6.33
2023-03-18T04:33:17.905Z,5.70
2023-03-18T04:35:48.610Z,5.77
2023-03-18T04:38:18.421Z,5.83
2023-03-18T04:40:48.182Z,5.20
2023-03-18T04:43:16.843Z,7.20
2023-03-18T04:45:45.278Z,5.60
2023-03-18T04:48:14.784Z,6.87
2023-03-18T04:50:47.270Z,10.50
2023-03-18T04:53:21.317Z,4.83
2023-03-18T04:55:50.674Z,5.40
2023-03-18T04:58:20.237Z,4.87
2023-03-18T05:01:00.573Z,6.57
2023-03-18T05:03:35.546Z,5.23
2023-03-18T05:06:06.218Z,6.40
2023-03-18T05:08:50.140Z,5.70
2023-03-18T05:11:19.255Z,4.90
2023-03-18T05:13:47.757Z,7.97
2023-03-18T05:16:18.402Z,7.57
2023-03-18T05:18:48.496Z,5.07
2023-03-18T05:21:18.313Z,5.93
2023-03-18T05:23:46.583Z,5.40
2023-03-18T05:26:17.099Z,6.20
2023-03-18T05:28:47.229Z,5.53
2023-03-18T05:31:26.775Z,7.33
2023-03-18T05:33:55.154Z,5.87
2023-03-18T05:36:26.336Z,4.63
2023-03-18T05:39:03.305Z,4.93
2023-03-18T05:41:32.367Z,4.20
2023-03-18T05:44:01.667Z,6.50
2023-03-18T05:46:32.015Z,8.10
2023-03-18T05:49:18.355Z,6.33
2023-03-18T05:52:07.766Z,4.87
2023-03-18T05:54:43.762Z,6.00
2023-03-18T05:57:15.381Z,4.60
2023-03-18T05:59:45.371Z,5.70
2023-03-18T06:02:13.609Z,7.07
2023-03-18T06:04:41.892Z,4.17
2023-03-18T06:07:12.300Z,4.80
2023-03-18T06:09:40.831Z,4.90
2023-03-18T06:12:09.543Z,5.93
2023-03-18T06:14:37.837Z,3.60
2023-03-18T06:17:07.440Z,5.47
2023-03-18T06:19:35.694Z,4.67
2023-03-18T06:22:03.811Z,4.00
2023-03-18T06:24:33.203Z,4.90
2023-03-18T06:27:01.479Z,4.00
2023-03-18T06:29:29.967Z,4.50
2023-03-18T06:32:02.616Z,4.40
2023-03-18T06:34:30.858Z,4.10
2023-03-18T06:36:58.968Z,4.30
2023-03-18T06:39:28.513Z,4.33
2023-03-18T06:41:58.297Z,3.97
2023-03-18T06:44:34.555Z,4.53
2023-03-18T06:47:12.015Z,3.70
2023-03-18T06:49:45.895Z,3.67
2023-03-18T06:52:19.472Z,4.80
2023-03-18T06:54:49.551Z,3.83
2023-03-18T06:57:20.464Z,6.80
2023-03-18T06:59:50.673Z,6.03
2023-03-18T07:02:19.022Z,3.80
2023-03-18T07:04:48.208Z,4.50
2023-03-18T07:07:17.004Z,4.00
2023-03-18T07:09:45.887Z,4.73
2023-03-18T07:12:16.570Z,6.57
2023-03-18T07:14:47.006Z,16.03
2023-03-18T07:17:15.846Z,8.47
2023-03-18T07:19:44.059Z,4.60
2023-03-18T07:22:12.434Z,4.80
2023-03-18T07:24:40.679Z,4.17
2023-03-18T07:27:08.910Z,5.57
2023-03-18T07:29:37.960Z,4.90
2023-03-18T07:32:08.094Z,4.60
2023-03-18T07:34:36.605Z,9.13
2023-03-18T07:37:04.921Z,4.80
2023-03-18T07:39:33.611Z,4.77
2023-03-18T07:42:02.157Z,4.93
2023-03-18T07:44:32.285Z,4.30
2023-03-18T07:47:00.593Z,7.87
2023-03-18T07:49:30.230Z,4.00
2023-03-18T07:51:58.676Z,4.50
2023-03-18T07:54:27.085Z,6.97
2023-03-18T07:56:55.493Z,4.97
2023-03-18T07:59:24.411Z,4.20
2023-03-18T08:01:52.756Z,6.63
2023-03-18T08:04:20.988Z,4.87
2023-03-18T08:06:50.546Z,4.87
2023-03-18T08:09:18.544Z,9.03
2023-03-18T08:11:47.010Z,4.80
2023-03-18T08:14:15.089Z,10.80
2023-03-18T08:16:43.358Z,5.13
2023-03-18T08:19:11.975Z,3.70
2023-03-18T08:21:40.493Z,6.23
2023-03-18T08:24:10.824Z,4.53
2023-03-18T08:26:39.244Z,5.27
2023-03-18T08:29:07.577Z,5.13
2023-03-18T08:31:35.865Z,4.23
2023-03-18T08:34:04.096Z,6.07
2023-03-18T08:36:32.167Z,6.60
2023-03-18T08:39:00.809Z,4.20
2023-03-18T08:41:31.278Z,4.30
2023-03-18T08:43:59.780Z,4.10
2023-03-18T08:46:27.880Z,8.43
2023-03-18T08:48:56.215Z,5.70
2023-03-18T08:51:24.635Z,3.90
2023-03-18T08:53:52.892Z,3.83
2023-03-18T08:56:20.918Z,7.93
2023-03-18T08:58:51.045Z,6.87
2023-03-18T09:01:22.062Z,8.43
2023-03-18T09:03:50.595Z,5.73
2023-03-18T09:06:19.417Z,5.40
2023-03-18T09:08:47.423Z,5.80
2023-03-18T09:11:16.198Z,3.80
2023-03-18T09:13:44.236Z,3.43
2023-03-18T09:16:13.697Z,5.47
2023-03-18T09:18:44.297Z,5.13
2023-03-18T09:21:13.948Z,3.60
2023-03-18T09:23:43.146Z,3.03
2023-03-18T09:26:11.455Z,5.20
2023-03-18T09:28:39.637Z,4.20
2023-03-18T09:31:08.008Z,3.80
2023-03-18T09:33:37.821Z,3.57
2023-03-18T09:36:06.484Z,4.30
2023-03-18T09:38:34.560Z,6.17
2023-03-18T09:41:08.571Z,3.20
2023-03-18T09:43:58.636Z,4.00
2023-03-18T09:46:33.541Z,5.83
2023-03-18T09:49:24.773Z,3.33
2023-03-18T09:52:06.681Z,8.23
2023-03-18T09:54:39.275Z,5.30
2023-03-18T09:57:14.182Z,8.00
2023-03-18T09:59:46.629Z,5.73
2023-03-18T10:02:22.300Z,4.67
2023-03-18T10:04:56.180Z,5.27
2023-03-18T10:07:29.663Z,5.90
2023-03-18T10:10:03.444Z,4.63
2023-03-18T10:12:35.589Z,7.23
2023-03-18T10:15:14.741Z,6.33
2023-03-18T10:17:47.263Z,4.83
2023-03-18T10:20:21.016Z,5.10
2023-03-18T10:23:00.043Z,4.33
2023-03-18T10:25:36.082Z,7.00
2023-03-18T10:28:42.569Z,6.30
2023-03-18T10:31:22.439Z,5.20
2023-03-18T10:33:58.270Z,5.23
2023-03-18T10:36:32.955Z,7.23
2023-03-18T10:39:02.671Z,6.03
2023-03-18T10:41:33.542Z,4.30
2023-03-18T10:44:04.888Z,6.13
2023-03-18T10:46:35.191Z,4.97
2023-03-18T10:49:08.167Z,11.60
2023-03-18T10:51:45.270Z,4.77
2023-03-18T10:54:21.064Z,11.87
2023-03-18T10:56:49.473Z,5.97
2023-03-18T10:59:19.573Z,5.00
2023-03-18T11:01:51.247Z,4.00
2023-03-18T11:04:21.585Z,7.27
2023-03-18T11:06:53.618Z,6.77
2023-03-18T11:09:23.544Z,4.50
2023-03-18T11:11:57.927Z,4.73
2023-03-18T11:14:31.020Z,6.00
2023-03-18T11:17:00.730Z,5.23
2023-03-18T11:19:32.199Z,6.03
2023-03-18T11:22:14.190Z,5.03
2023-03-18T11:24:43.760Z,4.27
2023-03-18T11:27:27.141Z,5.47
2023-03-18T11:30:00.001Z,3.70
2023-03-18T11:32:29.800Z,4.23
2023-03-18T11:34:58.842Z,4.20
2023-03-18T11:37:36.335Z,3.97
2023-03-18T11:40:20.710Z,5.60
2023-03-18T11:42:54.527Z,4.70
2023-03-18T11:45:44.225Z,3.93
2023-03-18T11:48:24.719Z,3.50
2023-03-18T11:51:06.865Z,4.50
2023-03-18T11:53:48.080Z,6.23
2023-03-18T11:56:25.165Z,3.93
2023-03-18T11:59:39.071Z,3.93
2023-03-18T12:02:31.478Z,3.97
2023-03-18T12:05:13.846Z,4.60
2023-03-18T12:07:51.854Z,4.90
2023-03-18T12:10:28.500Z,3.80
2023-03-18T12:13:23.335Z,4.47
2023-03-18T12:15:58.207Z,3.77
2023-03-18T12:18:43.031Z,4.57
2023-03-18T12:21:42.927Z,4.50
2023-03-18T12:24:33.679Z,4.30
2023-03-18T12:27:08.989Z,6.53
2023-03-18T12:29:59.343Z,5.27
2023-03-18T12:32:32.251Z,3.50
2023-03-18T12:35:29.587Z,4.33
2023-03-18T12:38:14.415Z,3.00
2023-03-18T12:40:55.691Z,3.23
2023-03-18T12:43:43.135Z,4.13
2023-03-18T12:46:23.186Z,4.63
2023-03-18T12:48:55.671Z,3.43
2023-03-18T12:51:27.491Z,4.57
2023-03-18T12:53:58.929Z,4.03
2023-03-18T12:56:29.998Z,3.63
2023-03-18T12:59:10.605Z,3.87
2023-03-18T13:01:47.833Z,3.40
2023-03-18T13:04:22.206Z,5.83
2023-03-18T13:06:59.677Z,4.17
2023-03-18T13:09:39.533Z,3.60
2023-03-18T13:12:12.585Z,4.80
2023-03-18T13:14:53.125Z,3.43
2023-03-18T13:17:27.818Z,4.10
2023-03-18T13:19:59.614Z,3.47
2023-03-18T13:22:48.850Z,4.10
2023-03-18T13:25:28.974Z,3.63
2023-03-18T13:28:25.233Z,4.10
2023-03-18T13:31:07.729Z,3.83
2023-03-18T13:33:56.209Z,4.07
2023-03-18T13:36:56.297Z,3.87
2023-03-18T13:39:36.890Z,3.60
2023-03-18T13:42:21.561Z,4.97
2023-03-18T13:44:57.435Z,3.30
2023-03-18T13:47:31.401Z,5.23
2023-03-18T13:50:03.776Z,3.60
2023-03-18T13:52:42.004Z,2.87
2023-03-18T13:55:26.140Z,2.80
2023-03-18T13:58:09.200Z,4.30
2023-03-18T14:00:40.855Z,5.77
2023-03-18T14:03:21.776Z,4.30
2023-03-18T14:05:51.594Z,7.03
2023-03-18T14:08:49.570Z,3.40
2023-03-18T14:11:46.923Z,4.60
2023-03-18T14:14:56.601Z,3.50
2023-03-18T14:17:50.491Z,4.27
2023-03-18T14:20:37.652Z,4.47
2023-03-18T14:23:30.260Z,4.80
2023-03-18T14:26:17.184Z,4.97
2023-03-18T14:28:51.753Z,4.87
2023-03-18T14:31:33.423Z,4.10
2023-03-18T14:34:23.273Z,4.57
2023-03-18T14:37:27.928Z,6.07
2023-03-18T14:40:03.795Z,4.27
2023-03-18T14:42:56.564Z,4.17
2023-03-18T14:45:28.421Z,4.50
2023-03-18T14:47:57.783Z,9.17
2023-03-18T14:50:41.991Z,4.63
2023-03-18T14:53:20.282Z,5.20
2023-03-18T14:55:49.885Z,3.90
2023-03-18T14:58:18.968Z,4.40
2023-03-18T15:00:49.668Z,5.53
2023-03-18T15:03:22.800Z,4.47
2023-03-18T15:05:52.133Z,5.40
2023-03-18T15:08:26.357Z,5.00
2023-03-18T15:10:58.795Z,5.00
2023-03-18T15:13:27.406Z,5.07
2023-03-18T15:15:57.318Z,5.00
2023-03-18T15:18:27.590Z,6.50
2023-03-18T15:20:57.843Z,4.10
2023-03-18T15:23:31.969Z,4.53
2023-03-18T15:26:00.155Z,5.17
2023-03-18T15:28:31.522Z,5.63
2023-03-18T15:31:01.693Z,5.67
2023-03-18T15:33:38.092Z,6.70
2023-03-18T15:36:08.366Z,7.80
2023-03-18T15:38:38.629Z,6.60
2023-03-18T15:41:12.004Z,5.07
2023-03-18T15:43:42.802Z,5.27
2023-03-18T15:46:18.193Z,6.03
2023-03-18T15:48:54.417Z,6.20
2023-03-18T15:51:29.956Z,6.30
2023-03-18T15:54:04.425Z,4.70
2023-03-18T15:56:36.081Z,5.10
2023-03-18T15:59:08.993Z,5.90
2023-03-18T16:01:37.568Z,5.47
2023-03-18T16:04:08.204Z,5.50
2023-03-18T16:06:36.621Z,6.00
2023-03-18T16:09:15.825Z,5.40
2023-03-18T16:11:45.417Z,5.90
2023-03-18T16:14:17.369Z,5.53
2023-03-18T16:16:45.883Z,5.50
2023-03-18T16:19:16.622Z,6.07
2023-03-18T16:21:45.689Z,5.90
2023-03-18T16:24:17.090Z,5.70
2023-03-18T16:26:46.200Z,5.50
2023-03-18T16:29:17.095Z,4.97
2023-03-18T16:31:45.822Z,7.07
2023-03-18T16:34:17.031Z,7.27
2023-03-18T16:36:46.028Z,10.10
2023-03-18T16:39:20.969Z,10.30
2023-03-18T16:41:49.727Z,7.50
2023-03-18T16:44:19.515Z,7.20
2023-03-18T16:46:50.149Z,7.03
2023-03-18T16:49:22.261Z,6.47
2023-03-18T16:51:50.547Z,7.00
2023-03-18T16:54:22.490Z,8.27
2023-03-18T16:56:52.401Z,7.67
2023-03-18T16:59:22.290Z,9.20
2023-03-18T17:01:50.641Z,6.70
2023-03-18T17:04:23.091Z,10.87
2023-03-18T17:06:52.335Z,7.90
2023-03-18T17:09:23.141Z,6.40
2023-03-18T17:11:53.032Z,8.50
2023-03-18T17:14:31.068Z,10.00
2023-03-18T17:17:02.219Z,13.00
2023-03-18T17:19:31.165Z,8.50
2023-03-18T17:21:59.650Z,7.37
2023-03-18T17:24:29.270Z,9.00
2023-03-18T17:26:57.460Z,7.37
2023-03-18T17:29:27.537Z,7.10
2023-03-18T17:31:56.415Z,10.33
2023-03-18T17:34:24.925Z,6.70
2023-03-18T17:36:53.046Z,11.83
2023-03-18T17:39:21.359Z,5.70
2023-03-18T17:41:50.697Z,7.00
2023-03-18T17:44:26.670Z,5.53
2023-03-18T17:46:57.122Z,6.20
2023-03-18T17:49:27.793Z,6.50
2023-03-18T17:51:57.090Z,6.97
2023-03-18T17:54:27.200Z,6.10
2023-03-18T17:56:56.757Z,6.37
2023-03-18T17:59:25.017Z,8.00
2023-03-18T18:01:53.236Z,6.90
2023-03-18T18:04:24.770Z,7.60
2023-03-18T18:06:53.446Z,7.13
2023-03-18T18:09:22.066Z,6.80
2023-03-18T18:11:50.958Z,8.57
2023-03-18T18:14:23.598Z,8.60
2023-03-18T18:16:52.376Z,6.33
2023-03-18T18:19:20.984Z,8.30
2023-03-18T18:21:50.443Z,7.40
2023-03-18T18:24:23.861Z,5.67
2023-03-18T18:26:52.413Z,5.70
2023-03-18T18:29:23.444Z,8.10
2023-03-18T18:31:52.215Z,6.87
2023-03-18T18:34:21.176Z,7.77
2023-03-18T18:36:49.598Z,8.63
2023-03-18T18:39:18.057Z,7.53
2023-03-18T18:41:46.564Z,8.77
2023-03-18T18:44:15.201Z,10.20
2023-03-18T18:46:44.771Z,7.63
2023-03-18T18:49:22.119Z,30.07
2023-03-18T18:51:50.784Z,14.03
2023-03-18T18:54:19.599Z,16.10
2023-03-18T18:56:47.857Z,14.50
2023-03-18T18:59:26.990Z,10.43
2023-03-18T19:01:57.267Z,16.43
2023-03-18T19:04:25.952Z,18.07
2023-03-18T19:06:54.596Z,13.37
2023-03-18T19:09:25.245Z,11.50
2023-03-18T19:11:55.262Z,9.67
2023-03-18T19:14:25.576Z,17.90
2023-03-18T19:16:56.417Z,12.30
2023-03-18T19:19:29.975Z,12.47
2023-03-18T19:21:58.947Z,11.97
2023-03-18T19:24:29.302Z,12.80
2023-03-18T19:26:59.570Z,37.10
2023-03-18T19:29:28.034Z,11.07
2023-03-18T19:31:57.225Z,10.63
2023-03-18T19:34:26.952Z,15.57
2023-03-18T19:36:57.324Z,16.93
2023-03-18T19:39:27.728Z,10.67
2023-03-18T19:41:56.081Z,9.83
2023-03-18T19:44:26.113Z,9.93
2023-03-18T19:46:56.120Z,9.53
2023-03-18T19:49:28.390Z,9.13
2023-03-18T19:51:57.022Z,10.20
2023-03-18T19:54:28.648Z,8.90
2023-03-18T19:57:00.501Z,8.77
2023-03-18T19:59:37.516Z,9.73
2023-03-18T20:02:20.320Z,14.13
2023-03-18T20:04:50.114Z,43.63
2023-03-18T20:07:20.064Z,13.50
2023-03-18T20:09:48.199Z,12.33
2023-03-18T20:12:23.785Z,10.10
2023-03-18T20:14:52.430Z,11.17
2023-03-18T20:17:33.983Z,11.40
2023-03-18T20:20:03.870Z,14.87
2023-03-18T20:22:36.291Z,11.53
2023-03-18T20:25:06.290Z,12.80
2023-03-18T20:27:34.342Z,12.03
2023-03-18T20:30:03.378Z,12.97
2023-03-18T20:32:31.850Z,12.50
2023-03-18T20:35:02.932Z,12.40
2023-03-18T20:37:36.027Z,12.47
2023-03-18T20:40:07.119Z,12.53
2023-03-18T20:42:35.387Z,11.93
2023-03-18T20:45:03.959Z,11.10
2023-03-18T20:47:32.014Z,12.13
2023-03-18T20:50:00.140Z,10.80
2023-03-18T20:52:31.049Z,12.03
2023-03-18T20:55:01.167Z,10.90
2023-03-18T20:57:29.344Z,12.33
2023-03-18T20:59:57.952Z,11.60
2023-03-18T21:02:33.251Z,11.20
2023-03-18T21:05:03.190Z,30.30
2023-03-18T21:07:31.907Z,19.73
2023-03-18T21:10:01.469Z,15.17
2023-03-18T21:12:29.629Z,12.90
2023-03-18T21:14:57.889Z,10.17
2023-03-18T21:17:28.082Z,12.17
2023-03-18T21:20:05.035Z,12.10
2023-03-18T21:22:36.611Z,12.30
2023-03-18T21:25:09.030Z,10.80
2023-03-18T21:27:38.189Z,10.93
2023-03-18T21:30:09.558Z,11.20
2023-03-18T21:32:40.220Z,12.00
2023-03-18T21:35:15.769Z,14.30
2023-03-18T21:37:43.847Z,10.50
2023-03-18T21:40:18.362Z,10.90
2023-03-18T21:42:47.432Z,12.30
2023-03-18T21:45:18.932Z,13.57
2023-03-18T21:47:47.145Z,13.77
2023-03-18T21:50:24.218Z,10.20
2023-03-18T21:52:53.503Z,9.37
2023-03-18T21:55:23.622Z,12.50
2023-03-18T21:57:51.783Z,12.33
2023-03-18T22:00:21.615Z,13.20
2023-03-18T22:02:49.972Z,15.63
2023-03-18T22:05:20.821Z,13.93
2023-03-18T22:07:50.468Z,11.57
2023-03-18T22:10:20.321Z,12.67
2023-03-18T22:12:50.549Z,12.43
2023-03-18T22:15:35.724Z,12.60
2023-03-18T22:18:04.378Z,10.70
2023-03-18T22:20:34.685Z,11.40
2023-03-18T22:23:03.226Z,11.33
2023-03-18T22:25:33.726Z,11.10
2023-03-18T22:28:03.426Z,12.73
2023-03-18T22:30:34.061Z,12.23
2023-03-18T22:33:04.905Z,11.37
2023-03-18T22:35:33.612Z,12.07
2023-03-18T22:38:01.948Z,12.20
2023-03-18T22:40:32.055Z,11.37
2023-03-18T22:43:02.092Z,11.70
2023-03-18T22:45:33.232Z,17.03
2023-03-18T22:48:03.644Z,11.77
2023-03-18T22:50:35.006Z,11.27
2023-03-18T22:53:06.549Z,13.60
2023-03-18T22:55:38.719Z,11.67
2023-03-18T22:58:18.577Z,11.40
2023-03-18T23:00:49.178Z,11.40
2023-03-18T23:03:19.817Z,10.43
2023-03-18T23:05:48.715Z,10.73
2023-03-18T23:08:17.197Z,13.60
2023-03-18T23:10:46.504Z,13.43
2023-03-18T23:13:16.709Z,10.00
2023-03-18T23:15:45.604Z,11.93
2023-03-18T23:18:16.625Z,10.30
2023-03-18T23:20:45.688Z,18.30
2023-03-18T23:23:15.530Z,14.40
2023-03-18T23:25:45.078Z,14.80
2023-03-18T23:28:13.492Z,12.67
2023-03-18T23:30:43.311Z,10.23
2023-03-18T23:33:11.804Z,10.80
2023-03-18T23:35:41.732Z,11.50
2023-03-18T23:38:09.760Z,11.20
2023-03-18T23:40:37.818Z,8.70
2023-03-18T23:43:06.565Z,10.53
2023-03-18T23:45:34.947Z,10.17
2023-03-18T23:48:03.995Z,14.13
2023-03-18T23:50:32.178Z,14.20
2023-03-18T23:53:01.792Z,11.53
2023-03-18T23:55:34.939Z,9.37
2023-03-18T23:58:03.347Z,10.50
